sensor_id;sensor_type;location;lat;lon;timestamp;temperature;humidity
3816;DHT22;1923;48.154;11.536;2023-04-07T00:00:16;6.90;72.20
3816;DHT22;1923;48.154;11.536;2023-04-07T00:02:45;6.80;72.60
3816;DHT22;1923;48.154;11.536;2023-04-07T00:05:16;6.80;73.20
3816;DHT22;1923;48.154;11.536;2023-04-07T00:07:44;6.70;73.20
3816;DHT22;1923;48.154;11.536;2023-04-07T00:10:22;6.80;74.00
3816;DHT22;1923;48.154;11.536;2023-04-07T00:12:50;6.80;74.50
3816;DHT22;1923;48.154;11.536;2023-04-07T00:15:18;6.90;74.60
3816;DHT22;1923;48.154;11.536;2023-04-07T00:17:47;6.90;75.00
3816;DHT22;1923;48.154;11.536;2023-04-07T00:20:19;6.90;75.50
3816;DHT22;1923;48.154;11.536;2023-04-07T00:22:48;6.80;75.50
3816;DHT22;1923;48.154;11.536;2023-04-07T00:25:16;6.80;75.90
3816;DHT22;1923;48.154;11.536;2023-04-07T00:27:44;6.80;76.30
3816;DHT22;1923;48.154;11.536;2023-04-07T00:30:12;6.80;77.00
3816;DHT22;1923;48.154;11.536;2023-04-07T00:32:42;6.80;77.30
3816;DHT22;1923;48.154;11.536;2023-04-07T00:35:11;6.90;78.00
3816;DHT22;1923;48.154;11.536;2023-04-07T00:37:40;6.90;78.50
3816;DHT22;1923;48.154;11.536;2023-04-07T00:40:09;6.90;78.90
3816;DHT22;1923;48.154;11.536;2023-04-07T00:42:37;6.80;79.00
3816;DHT22;1923;48.154;11.536;2023-04-07T00:45:06;6.80;79.50
3816;DHT22;1923;48.154;11.536;2023-04-07T00:47:36;6.80;80.10
3816;DHT22;1923;48.154;11.536;2023-04-07T00:50:05;6.80;80.00
3816;DHT22;1923;48.154;11.536;2023-04-07T00:52:33;6.80;80.80
3816;DHT22;1923;48.154;11.536;2023-04-07T00:55:03;6.90;80.30
3816;DHT22;1923;48.154;11.536;2023-04-07T00:57:31;6.80;80.80
3816;DHT22;1923;48.154;11.536;2023-04-07T00:59:59;6.80;80.90
3816;DHT22;1923;48.154;11.536;2023-04-07T01:02:31;6.90;81.70
3816;DHT22;1923;48.154;11.536;2023-04-07T01:05:06;6.90;81.20
3816;DHT22;1923;48.154;11.536;2023-04-07T01:07:43;6.80;81.50
3816;DHT22;1923;48.154;11.536;2023-04-07T01:10:22;6.80;81.50
3816;DHT22;1923;48.154;11.536;2023-04-07T01:13:05;6.70;82.10
3816;DHT22;1923;48.154;11.536;2023-04-07T01:15:34;6.70;82.00
3816;DHT22;1923;48.154;11.536;2023-04-07T01:18:09;6.70;82.10
3816;DHT22;1923;48.154;11.536;2023-04-07T01:20:39;6.80;82.60
3816;DHT22;1923;48.154;11.536;2023-04-07T01:23:16;6.80;82.70
3816;DHT22;1923;48.154;11.536;2023-04-07T01:26:03;6.80;82.70
3816;DHT22;1923;48.154;11.536;2023-04-07T01:28:48;6.70;83.30
3816;DHT22;1923;48.154;11.536;2023-04-07T01:31:19;6.80;83.50
3816;DHT22;1923;48.154;11.536;2023-04-07T01:33:48;6.70;83.80
3816;DHT22;1923;48.154;11.536;2023-04-07T01:36:18;6.90;83.80
3816;DHT22;1923;48.154;11.536;2023-04-07T01:38:48;6.80;83.80
3816;DHT22;1923;48.154;11.536;2023-04-07T01:41:18;6.60;84.50
3816;DHT22;1923;48.154;11.536;2023-04-07T01:43:47;6.70;85.00
3816;DHT22;1923;48.154;11.536;2023-04-07T01:46:15;6.70;84.90
3816;DHT22;1923;48.154;11.536;2023-04-07T01:48:45;6.70;85.60
3816;DHT22;1923;48.154;11.536;2023-04-07T01:51:15;6.70;85.80
3816;DHT22;1923;48.154;11.536;2023-04-07T01:53:44;6.70;86.10
3816;DHT22;1923;48.154;11.536;2023-04-07T01:56:12;6.70;86.60
3816;DHT22;1923;48.154;11.536;2023-04-07T01:58:41;6.60;87.40
3816;DHT22;1923;48.154;11.536;2023-04-07T02:01:09;6.60;87.90
3816;DHT22;1923;48.154;11.536;2023-04-07T02:03:43;6.70;88.00
3816;DHT22;1923;48.154;11.536;2023-04-07T02:06:18;6.70;88.50
3816;DHT22;1923;48.154;11.536;2023-04-07T02:08:52;6.70;89.30
3816;DHT22;1923;48.154;11.536;2023-04-07T02:11:24;6.70;90.00
3816;DHT22;1923;48.154;11.536;2023-04-07T02:13:53;6.70;90.20
3816;DHT22;1923;48.154;11.536;2023-04-07T02:16:22;6.80;90.60
3816;DHT22;1923;48.154;11.536;2023-04-07T02:18:52;6.70;91.00
3816;DHT22;1923;48.154;11.536;2023-04-07T02:21:21;6.80;91.20
3816;DHT22;1923;48.154;11.536;2023-04-07T02:23:50;6.80;91.50
3816;DHT22;1923;48.154;11.536;2023-04-07T02:26:18;6.80;91.90
3816;DHT22;1923;48.154;11.536;2023-04-07T02:28:47;6.80;92.10
3816;DHT22;1923;48.154;11.536;2023-04-07T02:31:15;6.90;92.30
3816;DHT22;1923;48.154;11.536;2023-04-07T02:33:43;6.90;92.60
3816;DHT22;1923;48.154;11.536;2023-04-07T02:36:11;7.00;93.10
3816;DHT22;1923;48.154;11.536;2023-04-07T02:38:40;7.00;93.40
3816;DHT22;1923;48.154;11.536;2023-04-07T02:41:08;7.20;93.80
3816;DHT22;1923;48.154;11.536;2023-04-07T02:43:36;7.10;94.10
3816;DHT22;1923;48.154;11.536;2023-04-07T02:46:04;7.20;94.70
3816;DHT22;1923;48.154;11.536;2023-04-07T02:48:33;7.20;95.10
3816;DHT22;1923;48.154;11.536;2023-04-07T02:51:01;7.20;95.80
3816;DHT22;1923;48.154;11.536;2023-04-07T02:53:29;7.30;96.10
3816;DHT22;1923;48.154;11.536;2023-04-07T02:55:59;7.20;96.90
3816;DHT22;1923;48.154;11.536;2023-04-07T02:58:27;7.20;97.70
3816;DHT22;1923;48.154;11.536;2023-04-07T03:00:55;7.20;98.40
3816;DHT22;1923;48.154;11.536;2023-04-07T03:03:23;7.30;99.00
3816;DHT22;1923;48.154;11.536;2023-04-07T03:05:51;7.30;99.70
3816;DHT22;1923;48.154;11.536;2023-04-07T03:08:19;7.20;99.90
3816;DHT22;1923;48.154;11.536;2023-04-07T03:10:47;7.40;99.90
3816;DHT22;1923;48.154;11.536;2023-04-07T03:13:17;7.30;99.90
3816;DHT22;1923;48.154;11.536;2023-04-07T03:15:45;7.30;99.90
3816;DHT22;1923;48.154;11.536;2023-04-07T03:18:13;7.40;99.90
3816;DHT22;1923;48.154;11.536;2023-04-07T03:20:42;7.30;99.90
3816;DHT22;1923;48.154;11.536;2023-04-07T03:23:11;7.30;99.90
3816;DHT22;1923;48.154;11.536;2023-04-07T03:25:39;7.20;99.90
3816;DHT22;1923;48.154;11.536;2023-04-07T03:28:08;7.20;99.90
3816;DHT22;1923;48.154;11.536;2023-04-07T03:30:37;7.20;99.90
3816;DHT22;1923;48.154;11.536;2023-04-07T03:33:05;7.20;99.90
3816;DHT22;1923;48.154;11.536;2023-04-07T03:35:33;7.30;99.90
3816;DHT22;1923;48.154;11.536;2023-04-07T03:38:01;7.30;99.90
3816;DHT22;1923;48.154;11.536;2023-04-07T03:40:29;7.30;99.90
3816;DHT22;1923;48.154;11.536;2023-04-07T03:43:00;7.20;99.90
3816;DHT22;1923;48.154;11.536;2023-04-07T03:45:28;7.30;99.90
3816;DHT22;1923;48.154;11.536;2023-04-07T03:47:58;7.20;99.90
3816;DHT22;1923;48.154;11.536;2023-04-07T03:50:26;7.10;99.90
3816;DHT22;1923;48.154;11.536;2023-04-07T03:52:54;7.00;99.90
3816;DHT22;1923;48.154;11.536;2023-04-07T03:55:22;6.90;99.90
3816;DHT22;1923;48.154;11.536;2023-04-07T03:57:51;6.90;99.90
3816;DHT22;1923;48.154;11.536;2023-04-07T04:00:19;6.90;99.90
3816;DHT22;1923;48.154;11.536;2023-04-07T04:02:47;6.80;99.90
3816;DHT22;1923;48.154;11.536;2023-04-07T04:05:16;6.80;99.90
3816;DHT22;1923;48.154;11.536;2023-04-07T04:07:45;6.80;99.90
3816;DHT22;1923;48.154;11.536;2023-04-07T04:10:13;6.90;99.90
3816;DHT22;1923;48.154;11.536;2023-04-07T04:12:41;6.80;99.90
3816;DHT22;1923;48.154;11.536;2023-04-07T04:15:10;6.80;99.90
3816;DHT22;1923;48.154;11.536;2023-04-07T04:17:38;6.80;99.90
3816;DHT22;1923;48.154;11.536;2023-04-07T04:20:08;6.70;99.90
3816;DHT22;1923;48.154;11.536;2023-04-07T04:22:37;6.80;99.90
3816;DHT22;1923;48.154;11.536;2023-04-07T04:25:05;6.70;99.90
3816;DHT22;1923;48.154;11.536;2023-04-07T04:27:33;6.70;99.90
3816;DHT22;1923;48.154;11.536;2023-04-07T04:30:02;6.70;99.90
3816;DHT22;1923;48.154;11.536;2023-04-07T04:32:30;6.70;99.90
3816;DHT22;1923;48.154;11.536;2023-04-07T04:34:58;6.70;99.90
3816;DHT22;1923;48.154;11.536;2023-04-07T04:37:27;6.70;99.90
3816;DHT22;1923;48.154;11.536;2023-04-07T04:39:56;6.60;99.90
3816;DHT22;1923;48.154;11.536;2023-04-07T04:42:24;6.60;99.90
3816;DHT22;1923;48.154;11.536;2023-04-07T04:44:53;6.60;99.90
3816;DHT22;1923;48.154;11.536;2023-04-07T04:47:21;6.60;99.90
3816;DHT22;1923;48.154;11.536;2023-04-07T04:49:50;6.50;99.90
3816;DHT22;1923;48.154;11.536;2023-04-07T04:52:18;6.50;99.90
3816;DHT22;1923;48.154;11.536;2023-04-07T04:54:46;6.50;99.90
3816;DHT22;1923;48.154;11.536;2023-04-07T04:57:16;6.50;99.90
3816;DHT22;1923;48.154;11.536;2023-04-07T04:59:44;6.50;99.90
3816;DHT22;1923;48.154;11.536;2023-04-07T05:02:12;6.50;99.90
3816;DHT22;1923;48.154;11.536;2023-04-07T05:04:40;6.60;99.90
3816;DHT22;1923;48.154;11.536;2023-04-07T05:07:08;6.70;99.90
3816;DHT22;1923;48.154;11.536;2023-04-07T05:09:36;6.70;99.90
3816;DHT22;1923;48.154;11.536;2023-04-07T05:12:05;6.70;99.90
3816;DHT22;1923;48.154;11.536;2023-04-07T05:14:34;6.80;99.90
3816;DHT22;1923;48.154;11.536;2023-04-07T05:17:02;6.70;99.90
3816;DHT22;1923;48.154;11.536;2023-04-07T05:19:30;6.70;99.90
3816;DHT22;1923;48.154;11.536;2023-04-07T05:21:59;6.70;99.90
3816;DHT22;1923;48.154;11.536;2023-04-07T05:24:28;6.70;99.90
3816;DHT22;1923;48.154;11.536;2023-04-07T05:26:56;6.70;99.90
3816;DHT22;1923;48.154;11.536;2023-04-07T05:29:24;6.70;99.90
3816;DHT22;1923;48.154;11.536;2023-04-07T05:31:53;6.70;99.90
3816;DHT22;1923;48.154;11.536;2023-04-07T05:34:22;6.70;99.90
3816;DHT22;1923;48.154;11.536;2023-04-07T05:36:50;6.80;99.90
3816;DHT22;1923;48.154;11.536;2023-04-07T05:39:18;6.80;99.90
3816;DHT22;1923;48.154;11.536;2023-04-07T05:41:46;6.80;99.90
3816;DHT22;1923;48.154;11.536;2023-04-07T05:44:14;6.90;99.90
3816;DHT22;1923;48.154;11.536;2023-04-07T05:46:42;6.90;99.90
3816;DHT22;1923;48.154;11.536;2023-04-07T05:49:12;6.90;99.90
3816;DHT22;1923;48.154;11.536;2023-04-07T05:51:46;6.90;99.90
3816;DHT22;1923;48.154;11.536;2023-04-07T05:54:15;7.00;99.90
3816;DHT22;1923;48.154;11.536;2023-04-07T05:56:43;7.00;99.90
3816;DHT22;1923;48.154;11.536;2023-04-07T05:59:11;7.00;99.90
3816;DHT22;1923;48.154;11.536;2023-04-07T06:01:39;7.00;99.90
3816;DHT22;1923;48.154;11.536;2023-04-07T06:04:07;7.00;99.90
3816;DHT22;1923;48.154;11.536;2023-04-07T06:06:37;7.10;99.90
3816;DHT22;1923;48.154;11.536;2023-04-07T06:09:05;7.20;99.90
3816;DHT22;1923;48.154;11.536;2023-04-07T06:11:34;7.30;99.90
3816;DHT22;1923;48.154;11.536;2023-04-07T06:14:02;7.20;99.90
3816;DHT22;1923;48.154;11.536;2023-04-07T06:16:30;7.40;99.90
3816;DHT22;1923;48.154;11.536;2023-04-07T06:18:58;7.60;99.90
3816;DHT22;1923;48.154;11.536;2023-04-07T06:21:26;7.70;99.90
3816;DHT22;1923;48.154;11.536;2023-04-07T06:23:56;7.60;99.90
3816;DHT22;1923;48.154;11.536;2023-04-07T06:26:24;7.60;99.90
3816;DHT22;1923;48.154;11.536;2023-04-07T06:28:52;7.50;99.90
3816;DHT22;1923;48.154;11.536;2023-04-07T06:31:21;7.60;99.90
3816;DHT22;1923;48.154;11.536;2023-04-07T06:33:49;7.70;99.90
3816;DHT22;1923;48.154;11.536;2023-04-07T06:36:17;7.90;99.90
3816;DHT22;1923;48.154;11.536;2023-04-07T06:38:46;8.10;99.90
3816;DHT22;1923;48.154;11.536;2023-04-07T06:41:15;8.10;99.90
3816;DHT22;1923;48.154;11.536;2023-04-07T06:43:45;8.10;99.90
3816;DHT22;1923;48.154;11.536;2023-04-07T06:46:13;8.20;99.90
3816;DHT22;1923;48.154;11.536;2023-04-07T06:48:41;8.10;99.90
3816;DHT22;1923;48.154;11.536;2023-04-07T06:51:10;8.30;99.90
3816;DHT22;1923;48.154;11.536;2023-04-07T06:53:38;8.30;99.90
3816;DHT22;1923;48.154;11.536;2023-04-07T06:56:08;8.40;99.90
3816;DHT22;1923;48.154;11.536;2023-04-07T06:58:38;8.50;99.90
3816;DHT22;1923;48.154;11.536;2023-04-07T07:01:06;8.50;99.90
3816;DHT22;1923;48.154;11.536;2023-04-07T07:03:34;8.40;99.90
3816;DHT22;1923;48.154;11.536;2023-04-07T07:06:03;8.60;99.90
3816;DHT22;1923;48.154;11.536;2023-04-07T07:08:31;8.70;99.90
3816;DHT22;1923;48.154;11.536;2023-04-07T07:10:59;8.60;99.90
3816;DHT22;1923;48.154;11.536;2023-04-07T07:13:27;8.80;99.90
3816;DHT22;1923;48.154;11.536;2023-04-07T07:15:56;8.90;99.90
3816;DHT22;1923;48.154;11.536;2023-04-07T07:18:25;9.10;99.90
3816;DHT22;1923;48.154;11.536;2023-04-07T07:20:54;9.30;99.90
3816;DHT22;1923;48.154;11.536;2023-04-07T07:23:22;9.20;99.90
3816;DHT22;1923;48.154;11.536;2023-04-07T07:25:50;9.40;99.90
3816;DHT22;1923;48.154;11.536;2023-04-07T07:28:19;9.50;99.90
3816;DHT22;1923;48.154;11.536;2023-04-07T07:30:47;9.40;99.90
3816;DHT22;1923;48.154;11.536;2023-04-07T07:33:17;9.60;99.90
3816;DHT22;1923;48.154;11.536;2023-04-07T07:35:45;9.90;99.90
3816;DHT22;1923;48.154;11.536;2023-04-07T07:38:13;10.10;99.90
3816;DHT22;1923;48.154;11.536;2023-04-07T07:40:41;10.00;99.90
3816;DHT22;1923;48.154;11.536;2023-04-07T07:43:09;10.10;99.90
3816;DHT22;1923;48.154;11.536;2023-04-07T07:45:38;10.30;99.90
3816;DHT22;1923;48.154;11.536;2023-04-07T07:48:06;10.40;99.90
3816;DHT22;1923;48.154;11.536;2023-04-07T07:50:36;10.50;99.90
3816;DHT22;1923;48.154;11.536;2023-04-07T07:53:03;10.50;99.90
3816;DHT22;1923;48.154;11.536;2023-04-07T07:55:31;10.50;99.90
3816;DHT22;1923;48.154;11.536;2023-04-07T07:58:00;10.50;99.90
3816;DHT22;1923;48.154;11.536;2023-04-07T08:00:28;10.40;99.90
3816;DHT22;1923;48.154;11.536;2023-04-07T08:02:56;10.40;99.90
3816;DHT22;1923;48.154;11.536;2023-04-07T08:05:24;10.40;99.90
3816;DHT22;1923;48.154;11.536;2023-04-07T08:07:53;10.30;99.90
3816;DHT22;1923;48.154;11.536;2023-04-07T08:10:22;10.00;99.90
3816;DHT22;1923;48.154;11.536;2023-04-07T08:12:50;10.00;99.90
3816;DHT22;1923;48.154;11.536;2023-04-07T08:15:18;10.00;99.90
3816;DHT22;1923;48.154;11.536;2023-04-07T08:17:47;10.00;99.90
3816;DHT22;1923;48.154;11.536;2023-04-07T08:20:15;10.00;99.90
3816;DHT22;1923;48.154;11.536;2023-04-07T08:22:43;10.30;99.90
3816;DHT22;1923;48.154;11.536;2023-04-07T08:25:12;10.40;99.90
3816;DHT22;1923;48.154;11.536;2023-04-07T08:27:40;10.50;99.90
3816;DHT22;1923;48.154;11.536;2023-04-07T08:30:08;10.60;99.90
3816;DHT22;1923;48.154;11.536;2023-04-07T08:32:38;10.80;99.90
3816;DHT22;1923;48.154;11.536;2023-04-07T08:35:07;10.90;99.90
3816;DHT22;1923;48.154;11.536;2023-04-07T08:37:36;11.00;99.90
3816;DHT22;1923;48.154;11.536;2023-04-07T08:40:05;11.30;99.90
3816;DHT22;1923;48.154;11.536;2023-04-07T08:42:39;11.40;99.90
3816;DHT22;1923;48.154;11.536;2023-04-07T08:45:08;11.50;99.90
3816;DHT22;1923;48.154;11.536;2023-04-07T08:47:36;11.90;99.90
3816;DHT22;1923;48.154;11.536;2023-04-07T08:50:08;12.20;99.90
3816;DHT22;1923;48.154;11.536;2023-04-07T08:52:43;12.30;99.90
3816;DHT22;1923;48.154;11.536;2023-04-07T08:55:12;12.50;99.90
3816;DHT22;1923;48.154;11.536;2023-04-07T08:57:42;12.80;99.90
3816;DHT22;1923;48.154;11.536;2023-04-07T09:00:11;12.80;99.90
3816;DHT22;1923;48.154;11.536;2023-04-07T09:02:40;13.20;99.90
3816;DHT22;1923;48.154;11.536;2023-04-07T09:05:11;13.60;99.90
3816;DHT22;1923;48.154;11.536;2023-04-07T09:07:40;13.70;99.80
3816;DHT22;1923;48.154;11.536;2023-04-07T09:10:09;14.00;99.70
3816;DHT22;1923;48.154;11.536;2023-04-07T09:12:37;14.40;98.80
3816;DHT22;1923;48.154;11.536;2023-04-07T09:15:08;14.80;97.90
3816;DHT22;1923;48.154;11.536;2023-04-07T09:17:36;15.00;97.20
3816;DHT22;1923;48.154;11.536;2023-04-07T09:20:04;15.10;96.70
3816;DHT22;1923;48.154;11.536;2023-04-07T09:22:37;15.80;96.60
3816;DHT22;1923;48.154;11.536;2023-04-07T09:25:10;16.20;95.40
3816;DHT22;1923;48.154;11.536;2023-04-07T09:27:38;16.50;93.80
3816;DHT22;1923;48.154;11.536;2023-04-07T09:30:12;16.90;93.80
3816;DHT22;1923;48.154;11.536;2023-04-07T09:32:43;17.00;93.20
3816;DHT22;1923;48.154;11.536;2023-04-07T09:35:11;16.60;92.30
3816;DHT22;1923;48.154;11.536;2023-04-07T09:37:39;16.10;92.30
3816;DHT22;1923;48.154;11.536;2023-04-07T09:40:08;15.60;92.90
3816;DHT22;1923;48.154;11.536;2023-04-07T09:42:44;15.70;92.70
3816;DHT22;1923;48.154;11.536;2023-04-07T09:45:23;16.40;92.70
3816;DHT22;1923;48.154;11.536;2023-04-07T09:48:04;17.10;91.70
3816;DHT22;1923;48.154;11.536;2023-04-07T09:50:33;17.50;90.80
3816;DHT22;1923;48.154;11.536;2023-04-07T09:53:02;18.00;90.20
3816;DHT22;1923;48.154;11.536;2023-04-07T09:55:30;19.50;88.00
3816;DHT22;1923;48.154;11.536;2023-04-07T09:57:59;20.20;83.50
3816;DHT22;1923;48.154;11.536;2023-04-07T10:00:29;20.10;80.90
3816;DHT22;1923;48.154;11.536;2023-04-07T10:02:57;20.10;78.00
3816;DHT22;1923;48.154;11.536;2023-04-07T10:05:26;19.70;78.30
3816;DHT22;1923;48.154;11.536;2023-04-07T10:07:55;19.10;78.80
3816;DHT22;1923;48.154;11.536;2023-04-07T10:10:24;18.80;79.40
3816;DHT22;1923;48.154;11.536;2023-04-07T10:12:56;18.50;78.70
3816;DHT22;1923;48.154;11.536;2023-04-07T10:15:24;17.90;78.20
3816;DHT22;1923;48.154;11.536;2023-04-07T10:17:54;17.40;79.50
3816;DHT22;1923;48.154;11.536;2023-04-07T10:20:23;16.70;81.00
3816;DHT22;1923;48.154;11.536;2023-04-07T10:22:54;16.90;81.00
3816;DHT22;1923;48.154;11.536;2023-04-07T10:25:28;16.60;80.60
3816;DHT22;1923;48.154;11.536;2023-04-07T10:28:00;16.40;81.80
3816;DHT22;1923;48.154;11.536;2023-04-07T10:30:31;16.10;82.50
3816;DHT22;1923;48.154;11.536;2023-04-07T10:33:01;16.40;83.10
3816;DHT22;1923;48.154;11.536;2023-04-07T10:36:02;17.40;82.50
3816;DHT22;1923;48.154;11.536;2023-04-07T10:38:30;19.00;79.40
3816;DHT22;1923;48.154;11.536;2023-04-07T10:40:58;20.10;77.10
3816;DHT22;1923;48.154;11.536;2023-04-07T10:43:37;20.20;74.20
3816;DHT22;1923;48.154;11.536;2023-04-07T10:46:05;19.90;73.60
3816;DHT22;1923;48.154;11.536;2023-04-07T10:48:35;20.10;75.00
3816;DHT22;1923;48.154;11.536;2023-04-07T10:51:14;21.50;72.10
3816;DHT22;1923;48.154;11.536;2023-04-07T10:57:05;23.70;64.60
3816;DHT22;1923;48.154;11.536;2023-04-07T10:59:37;24.20;60.90
3816;DHT22;1923;48.154;11.536;2023-04-07T11:02:31;24.70;59.50
3816;DHT22;1923;48.154;11.536;2023-04-07T11:05:01;25.30;57.30
3816;DHT22;1923;48.154;11.536;2023-04-07T11:07:44;24.60;56.40
3816;DHT22;1923;48.154;11.536;2023-04-07T11:10:12;23.70;57.00
3816;DHT22;1923;48.154;11.536;2023-04-07T11:12:42;22.60;57.80
3816;DHT22;1923;48.154;11.536;2023-04-07T11:15:17;22.10;59.20
3816;DHT22;1923;48.154;11.536;2023-04-07T11:17:46;21.30;59.30
3816;DHT22;1923;48.154;11.536;2023-04-07T11:20:16;20.50;60.40
3816;DHT22;1923;48.154;11.536;2023-04-07T11:22:58;19.60;62.10
3816;DHT22;1923;48.154;11.536;2023-04-07T11:25:26;19.10;62.20
3816;DHT22;1923;48.154;11.536;2023-04-07T11:27:56;18.60;64.30
3816;DHT22;1923;48.154;11.536;2023-04-07T11:30:24;18.40;65.00
3816;DHT22;1923;48.154;11.536;2023-04-07T11:32:52;18.30;65.50
3816;DHT22;1923;48.154;11.536;2023-04-07T11:35:22;18.10;65.70
3816;DHT22;1923;48.154;11.536;2023-04-07T11:37:56;17.70;66.40
3816;DHT22;1923;48.154;11.536;2023-04-07T11:40:31;17.40;67.00
3816;DHT22;1923;48.154;11.536;2023-04-07T11:43:00;17.10;68.00
3816;DHT22;1923;48.154;11.536;2023-04-07T11:45:29;17.00;68.10
3816;DHT22;1923;48.154;11.536;2023-04-07T11:47:57;16.80;68.10
3816;DHT22;1923;48.154;11.536;2023-04-07T11:50:40;16.90;69.20
3816;DHT22;1923;48.154;11.536;2023-04-07T11:53:09;16.80;69.80
3816;DHT22;1923;48.154;11.536;2023-04-07T11:55:37;16.80;71.20
3816;DHT22;1923;48.154;11.536;2023-04-07T11:58:06;16.70;70.70
3816;DHT22;1923;48.154;11.536;2023-04-07T12:00:52;16.30;70.40
3816;DHT22;1923;48.154;11.536;2023-04-07T12:03:20;15.90;72.10
3816;DHT22;1923;48.154;11.536;2023-04-07T12:05:49;16.20;73.10
3816;DHT22;1923;48.154;11.536;2023-04-07T12:08:17;16.30;71.60
3816;DHT22;1923;48.154;11.536;2023-04-07T12:10:46;16.60;71.50
3816;DHT22;1923;48.154;11.536;2023-04-07T12:13:14;16.70;70.80
3816;DHT22;1923;48.154;11.536;2023-04-07T12:15:42;16.80;70.40
3816;DHT22;1923;48.154;11.536;2023-04-07T12:18:14;16.70;71.10
3816;DHT22;1923;48.154;11.536;2023-04-07T12:20:44;16.90;71.10
3816;DHT22;1923;48.154;11.536;2023-04-07T12:23:14;17.00;70.60
3816;DHT22;1923;48.154;11.536;2023-04-07T12:25:42;16.80;70.90
3816;DHT22;1923;48.154;11.536;2023-04-07T12:28:10;16.40;71.20
3816;DHT22;1923;48.154;11.536;2023-04-07T12:30:38;16.40;71.70
3816;DHT22;1923;48.154;11.536;2023-04-07T12:33:06;16.10;72.40
3816;DHT22;1923;48.154;11.536;2023-04-07T12:35:34;15.90;71.70
3816;DHT22;1923;48.154;11.536;2023-04-07T12:38:02;15.90;72.00
3816;DHT22;1923;48.154;11.536;2023-04-07T12:40:32;15.80;72.50
3816;DHT22;1923;48.154;11.536;2023-04-07T12:43:01;16.10;72.90
3816;DHT22;1923;48.154;11.536;2023-04-07T12:45:30;16.30;72.80
3816;DHT22;1923;48.154;11.536;2023-04-07T12:47:58;16.50;72.50
3816;DHT22;1923;48.154;11.536;2023-04-07T12:50:27;16.60;72.80
3816;DHT22;1923;48.154;11.536;2023-04-07T12:52:56;16.20;72.10
3816;DHT22;1923;48.154;11.536;2023-04-07T12:55:24;16.20;72.20
3816;DHT22;1923;48.154;11.536;2023-04-07T12:57:54;16.00;72.70
3816;DHT22;1923;48.154;11.536;2023-04-07T13:00:22;15.90;72.80
3816;DHT22;1923;48.154;11.536;2023-04-07T13:02:51;15.90;73.10
3816;DHT22;1923;48.154;11.536;2023-04-07T13:05:19;15.90;72.70
3816;DHT22;1923;48.154;11.536;2023-04-07T13:07:48;15.80;73.00
3816;DHT22;1923;48.154;11.536;2023-04-07T13:10:16;15.60;73.70
3816;DHT22;1923;48.154;11.536;2023-04-07T13:12:44;15.50;74.30
3816;DHT22;1923;48.154;11.536;2023-04-07T13:15:13;15.30;74.90
3816;DHT22;1923;48.154;11.536;2023-04-07T13:17:42;15.60;75.40
3816;DHT22;1923;48.154;11.536;2023-04-07T13:20:10;15.40;75.50
3816;DHT22;1923;48.154;11.536;2023-04-07T13:22:38;15.20;75.80
3816;DHT22;1923;48.154;11.536;2023-04-07T13:25:17;15.00;75.90
3816;DHT22;1923;48.154;11.536;2023-04-07T13:27:45;14.70;76.90
3816;DHT22;1923;48.154;11.536;2023-04-07T13:30:15;14.80;76.90
3816;DHT22;1923;48.154;11.536;2023-04-07T13:32:42;14.80;77.60
3816;DHT22;1923;48.154;11.536;2023-04-07T13:35:11;14.80;78.20
3816;DHT22;1923;48.154;11.536;2023-04-07T13:37:39;14.60;78.10
3816;DHT22;1923;48.154;11.536;2023-04-07T13:40:08;14.80;79.00
3816;DHT22;1923;48.154;11.536;2023-04-07T13:42:36;14.90;78.50
3816;DHT22;1923;48.154;11.536;2023-04-07T13:45:05;14.70;78.30
3816;DHT22;1923;48.154;11.536;2023-04-07T13:47:35;14.80;78.20
3816;DHT22;1923;48.154;11.536;2023-04-07T13:50:04;14.80;77.90
3816;DHT22;1923;48.154;11.536;2023-04-07T13:52:32;14.70;77.60
3816;DHT22;1923;48.154;11.536;2023-04-07T13:55:01;14.80;78.20
3816;DHT22;1923;48.154;11.536;2023-04-07T13:57:31;14.70;78.60
3816;DHT22;1923;48.154;11.536;2023-04-07T13:59:59;14.80;79.20
3816;DHT22;1923;48.154;11.536;2023-04-07T14:02:27;14.80;79.40
3816;DHT22;1923;48.154;11.536;2023-04-07T14:04:57;14.80;80.40
3816;DHT22;1923;48.154;11.536;2023-04-07T14:07:25;14.80;79.20
3816;DHT22;1923;48.154;11.536;2023-04-07T14:09:53;15.00;78.50
3816;DHT22;1923;48.154;11.536;2023-04-07T14:12:21;15.00;78.70
3816;DHT22;1923;48.154;11.536;2023-04-07T14:14:49;14.80;78.50
3816;DHT22;1923;48.154;11.536;2023-04-07T14:17:18;14.90;78.40
3816;DHT22;1923;48.154;11.536;2023-04-07T14:19:46;14.80;78.70
3816;DHT22;1923;48.154;11.536;2023-04-07T14:22:16;14.90;78.50
3816;DHT22;1923;48.154;11.536;2023-04-07T14:24:44;14.90;79.50
3816;DHT22;1923;48.154;11.536;2023-04-07T14:27:12;15.00;80.50
3816;DHT22;1923;48.154;11.536;2023-04-07T14:29:46;15.00;79.20
3816;DHT22;1923;48.154;11.536;2023-04-07T14:32:14;15.10;78.80
3816;DHT22;1923;48.154;11.536;2023-04-07T14:34:42;15.30;78.50
3816;DHT22;1923;48.154;11.536;2023-04-07T14:37:10;15.30;78.10
3816;DHT22;1923;48.154;11.536;2023-04-07T14:39:41;15.20;77.50
3816;DHT22;1923;48.154;11.536;2023-04-07T14:42:27;15.30;78.10
3816;DHT22;1923;48.154;11.536;2023-04-07T14:44:56;15.50;78.90
3816;DHT22;1923;48.154;11.536;2023-04-07T14:47:24;15.70;78.50
3816;DHT22;1923;48.154;11.536;2023-04-07T14:49:53;15.80;78.70
3816;DHT22;1923;48.154;11.536;2023-04-07T14:52:22;15.70;79.10
3816;DHT22;1923;48.154;11.536;2023-04-07T14:54:51;15.50;78.80
3816;DHT22;1923;48.154;11.536;2023-04-07T14:57:19;15.40;79.10
3816;DHT22;1923;48.154;11.536;2023-04-07T14:59:48;15.30;79.10
3816;DHT22;1923;48.154;11.536;2023-04-07T15:02:16;14.80;79.90
3816;DHT22;1923;48.154;11.536;2023-04-07T15:04:44;14.50;80.20
3816;DHT22;1923;48.154;11.536;2023-04-07T15:07:12;14.50;81.10
3816;DHT22;1923;48.154;11.536;2023-04-07T15:09:41;14.30;80.40
3816;DHT22;1923;48.154;11.536;2023-04-07T15:12:10;14.10;81.40
3816;DHT22;1923;48.154;11.536;2023-04-07T15:14:38;13.90;82.20
3816;DHT22;1923;48.154;11.536;2023-04-07T15:17:06;13.80;82.70
3816;DHT22;1923;48.154;11.536;2023-04-07T15:19:34;13.90;83.40
3816;DHT22;1923;48.154;11.536;2023-04-07T15:22:02;13.90;83.90
3816;DHT22;1923;48.154;11.536;2023-04-07T15:24:30;13.90;84.10
3816;DHT22;1923;48.154;11.536;2023-04-07T15:26:58;14.00;84.20
3816;DHT22;1923;48.154;11.536;2023-04-07T15:29:28;14.00;83.90
3816;DHT22;1923;48.154;11.536;2023-04-07T15:31:56;13.90;84.00
3816;DHT22;1923;48.154;11.536;2023-04-07T15:34:24;13.80;84.30
3816;DHT22;1923;48.154;11.536;2023-04-07T15:36:52;13.70;85.20
3816;DHT22;1923;48.154;11.536;2023-04-07T15:39:20;13.70;85.90
3816;DHT22;1923;48.154;11.536;2023-04-07T15:41:48;13.60;86.40
3816;DHT22;1923;48.154;11.536;2023-04-07T15:44:16;13.70;86.10
3816;DHT22;1923;48.154;11.536;2023-04-07T15:46:46;13.80;85.90
3816;DHT22;1923;48.154;11.536;2023-04-07T15:49:14;13.80;86.10
3816;DHT22;1923;48.154;11.536;2023-04-07T15:51:46;13.70;86.50
3816;DHT22;1923;48.154;11.536;2023-04-07T15:54:14;13.70;86.00
3816;DHT22;1923;48.154;11.536;2023-04-07T15:56:42;13.70;86.10
3816;DHT22;1923;48.154;11.536;2023-04-07T15:59:10;13.60;85.30
3816;DHT22;1923;48.154;11.536;2023-04-07T16:01:38;13.60;85.00
3816;DHT22;1923;48.154;11.536;2023-04-07T16:04:07;13.60;85.40
3816;DHT22;1923;48.154;11.536;2023-04-07T16:06:36;13.40;85.90
3816;DHT22;1923;48.154;11.536;2023-04-07T16:09:04;13.40;86.60